createdAt,value
2023-11-17T00:00:38.896Z,5.75
2023-11-17T00:03:07.540Z,1.63
2023-11-17T00:05:35.278Z,5.00
2023-11-17T00:08:04.298Z,2.53
2023-11-17T00:10:33.423Z,1.63
2023-11-17T00:13:01.036Z,2.78
2023-11-17T00:15:29.397Z,1.95
2023-11-17T00:17:57.104Z,1.63
2023-11-17T00:20:24.933Z,1.77
2023-11-17T00:22:52.570Z,1.70
2023-11-17T00:25:20.346Z,1.90
2023-11-17T00:27:49.464Z,3.10
2023-11-17T00:30:17.120Z,1.65
2023-11-17T00:32:44.831Z,2.63
2023-11-17T00:35:13.775Z,2.95
2023-11-17T00:37:41.443Z,1.38
2023-11-17T00:40:09.755Z,2.42
2023-11-17T00:42:37.611Z,3.17
2023-11-17T00:45:08.873Z,2.25
2023-11-17T00:47:36.873Z,4.18
2023-11-17T00:50:12.217Z,2.28
2023-11-17T00:52:40.810Z,1.90
2023-11-17T00:55:09.221Z,2.15
2023-11-17T00:57:36.888Z,2.17
2023-11-17T01:00:06.761Z,2.15
2023-11-17T01:02:34.540Z,1.40
2023-11-17T01:05:02.251Z,1.73
2023-11-17T01:07:30.566Z,3.83
2023-11-17T01:09:58.258Z,1.38
2023-11-17T01:12:25.949Z,3.47
2023-11-17T01:14:54.850Z,10.20
2023-11-17T01:17:23.851Z,2.58
2023-11-17T01:19:51.940Z,2.88
2023-11-17T01:22:20.187Z,3.10
2023-11-17T01:24:47.864Z,2.47
2023-11-17T01:27:17.111Z,2.70
2023-11-17T01:29:45.391Z,1.85
2023-11-17T01:32:13.080Z,2.00
2023-11-17T01:34:42.666Z,2.30
2023-11-17T01:37:10.444Z,3.65
2023-11-17T01:39:39.303Z,2.08
2023-11-17T01:42:07.047Z,2.10
2023-11-17T01:44:34.677Z,1.35
2023-11-17T01:47:04.320Z,3.20
2023-11-17T01:49:32.109Z,3.20
2023-11-17T01:52:01.230Z,3.97
2023-11-17T01:54:28.912Z,1.80
2023-11-17T01:56:57.211Z,1.88
2023-11-17T01:59:24.878Z,1.38
2023-11-17T02:01:52.947Z,1.20
2023-11-17T02:04:20.725Z,1.80
2023-11-17T02:06:51.666Z,2.83
2023-11-17T02:09:39.606Z,2.53
2023-11-17T02:12:12.832Z,2.80
2023-11-17T02:14:43.218Z,1.75
2023-11-17T02:17:16.693Z,1.95
2023-11-17T02:19:45.253Z,1.58
2023-11-17T02:22:15.135Z,5.00
2023-11-17T02:24:47.245Z,2.58
2023-11-17T02:27:20.361Z,1.77
2023-11-17T02:29:49.713Z,2.08
2023-11-17T02:32:25.498Z,3.05
2023-11-17T02:34:54.181Z,2.53
2023-11-17T02:37:25.642Z,3.05
2023-11-17T02:39:56.190Z,2.58
2023-11-17T02:42:25.550Z,2.92
2023-11-17T02:44:54.675Z,3.67
2023-11-17T02:47:29.123Z,1.95
2023-11-17T02:50:02.142Z,1.92
2023-11-17T02:52:33.455Z,2.58
2023-11-17T02:55:03.877Z,2.35
2023-11-17T02:57:32.498Z,5.70
2023-11-17T03:00:01.589Z,3.67
2023-11-17T03:02:29.577Z,2.28
2023-11-17T03:04:57.233Z,1.75
2023-11-17T03:07:24.931Z,3.83
2023-11-17T03:09:53.817Z,1.98
2023-11-17T03:12:22.136Z,2.63
2023-11-17T03:14:49.785Z,2.45
2023-11-17T03:17:18.814Z,2.55
2023-11-17T03:19:46.520Z,5.18
2023-11-17T03:22:15.312Z,4.55
2023-11-17T03:24:43.679Z,5.35
2023-11-17T03:27:12.449Z,3.13
2023-11-17T03:29:40.255Z,3.63
2023-11-17T03:32:09.025Z,3.65
2023-11-17T03:34:38.567Z,3.25
2023-11-17T03:37:06.629Z,4.40
2023-11-17T03:39:42.150Z,2.65
2023-11-17T03:42:11.516Z,2.53
2023-11-17T03:44:39.159Z,4.70
2023-11-17T03:47:08.168Z,3.28
2023-11-17T03:49:36.010Z,2.13
2023-11-17T03:52:05.728Z,4.78
2023-11-17T03:54:33.960Z,3.47
2023-11-17T03:57:02.961Z,2.00
2023-11-17T03:59:31.427Z,2.47
2023-11-17T04:01:59.744Z,2.17
2023-11-17T04:04:28.557Z,3.45
2023-11-17T04:06:58.501Z,3.08
2023-11-17T04:09:28.406Z,5.43
2023-11-17T04:11:59.970Z,4.68
2023-11-17T04:14:36.688Z,3.35
2023-11-17T04:17:04.477Z,5.57
2023-11-17T04:19:32.281Z,2.63
2023-11-17T04:22:00.393Z,3.20
2023-11-17T04:24:30.435Z,3.17
2023-11-17T04:26:58.472Z,2.67
2023-11-17T04:29:26.918Z,2.72
2023-11-17T04:31:56.067Z,2.97
2023-11-17T04:34:23.965Z,4.20
2023-11-17T04:36:51.675Z,3.78
2023-11-17T04:39:19.624Z,2.83
2023-11-17T04:41:49.577Z,3.25
2023-11-17T04:44:18.299Z,3.58
2023-11-17T04:46:45.984Z,2.17
2023-11-17T04:49:14.098Z,3.30
2023-11-17T04:51:45.344Z,3.47
2023-11-17T04:54:15.202Z,3.15
2023-11-17T04:56:43.246Z,5.15
2023-11-17T04:59:12.596Z,2.60
2023-11-17T05:01:40.838Z,2.90
2023-11-17T05:04:09.337Z,2.38
2023-11-17T05:06:37.618Z,4.85
2023-11-17T05:09:11.385Z,4.40
2023-11-17T05:11:39.425Z,2.90
2023-11-17T05:14:07.673Z,2.38
2023-11-17T05:16:38.420Z,3.22
2023-11-17T05:19:07.017Z,2.45
2023-11-17T05:21:34.982Z,2.10
2023-11-17T05:24:03.966Z,1.40
2023-11-17T05:26:31.723Z,3.72
2023-11-17T05:28:59.375Z,2.78
2023-11-17T05:31:29.244Z,3.90
2023-11-17T05:33:58.921Z,1.75
2023-11-17T05:36:27.481Z,3.83
2023-11-17T05:38:56.512Z,1.83
2023-11-17T05:41:26.549Z,4.60
2023-11-17T05:43:54.726Z,3.20
2023-11-17T05:46:22.632Z,2.47
2023-11-17T05:48:51.462Z,3.90
2023-11-17T05:51:20.588Z,4.00
2023-11-17T05:53:48.278Z,4.03
2023-11-17T05:56:17.298Z,5.05
2023-11-17T05:58:45.118Z,3.88
2023-11-17T06:01:14.919Z,1.95
2023-11-17T06:03:42.881Z,3.45
2023-11-17T06:06:10.639Z,3.08
2023-11-17T06:08:39.666Z,2.15
2023-11-17T06:11:10.288Z,2.67
2023-11-17T06:13:40.200Z,5.68
2023-11-17T06:16:08.285Z,2.60
2023-11-17T06:18:36.040Z,2.33
2023-11-17T06:21:03.707Z,3.13
2023-11-17T06:23:31.321Z,2.78
2023-11-17T06:26:00.332Z,3.13
2023-11-17T06:28:27.998Z,4.80
2023-11-17T06:30:56.922Z,3.17
2023-11-17T06:33:24.820Z,2.78
2023-11-17T06:35:52.457Z,2.17
2023-11-17T06:38:19.148Z,3.00
2023-11-17T06:40:46.870Z,3.13
2023-11-17T06:43:16.217Z,4.32
2023-11-17T06:45:44.536Z,2.17
2023-11-17T06:48:13.927Z,1.95
2023-11-17T06:50:42.085Z,6.97
2023-11-17T06:53:11.384Z,3.28
2023-11-17T06:55:39.817Z,8.70
2023-11-17T06:58:07.786Z,5.55
2023-11-17T07:00:37.455Z,5.72
2023-11-17T07:03:05.671Z,5.72
2023-11-17T07:05:33.374Z,5.63
2023-11-17T07:08:02.365Z,6.15
2023-11-17T07:10:30.440Z,4.63
2023-11-17T07:12:59.289Z,10.98
2023-11-17T07:15:27.054Z,8.05
2023-11-17T07:17:57.476Z,6.97
2023-11-17T07:20:25.181Z,10.05
2023-11-17T07:22:53.509Z,11.00
2023-11-17T07:25:21.214Z,5.28
2023-11-17T07:27:49.751Z,8.07
2023-11-17T07:30:20.914Z,6.97
2023-11-17T07:32:48.621Z,7.78
2023-11-17T07:35:17.823Z,8.50
2023-11-17T07:37:45.734Z,7.50
2023-11-17T07:40:14.909Z,6.10
2023-11-17T07:42:42.768Z,5.45
2023-11-17T07:45:12.633Z,5.15
2023-11-17T07:47:42.320Z,6.80
2023-11-17T07:50:14.973Z,6.60
2023-11-17T07:52:45.391Z,6.53
2023-11-17T07:55:15.431Z,4.72
2023-11-17T07:57:43.446Z,6.30
2023-11-17T08:00:19.667Z,5.68
2023-11-17T08:02:47.844Z,6.70
2023-11-17T08:05:15.780Z,6.68
2023-11-17T08:07:47.026Z,6.32
2023-11-17T08:10:15.013Z,7.25
2023-11-17T08:12:42.683Z,11.55
2023-11-17T08:15:10.750Z,10.77
2023-11-17T08:17:38.967Z,12.48
2023-11-17T08:20:07.398Z,12.25
2023-11-17T08:22:35.045Z,5.97
2023-11-17T08:25:04.363Z,8.45
2023-11-17T08:27:33.013Z,10.02
2023-11-17T08:30:00.741Z,9.52
2023-11-17T08:32:28.733Z,10.25
2023-11-17T08:34:57.622Z,7.28
2023-11-17T08:37:25.299Z,13.05
2023-11-17T08:39:53.233Z,11.93
2023-11-17T08:42:22.185Z,11.57
2023-11-17T08:44:49.805Z,8.45
2023-11-17T08:47:17.831Z,8.07
2023-11-17T08:49:45.459Z,12.05
2023-11-17T08:52:14.182Z,14.18
2023-11-17T08:54:41.947Z,8.77
2023-11-17T08:57:09.670Z,11.52
2023-11-17T08:59:40.021Z,8.55
2023-11-17T09:02:08.687Z,10.63
2023-11-17T09:04:36.457Z,7.95
2023-11-17T09:07:05.702Z,9.13
2023-11-17T09:09:33.373Z,12.75
2023-11-17T09:12:01.918Z,9.18
2023-11-17T09:14:32.633Z,9.50
2023-11-17T09:17:07.949Z,8.77
2023-11-17T09:19:37.297Z,10.15
2023-11-17T09:22:06.082Z,6.68
2023-11-17T09:24:33.929Z,12.40
2023-11-17T09:27:01.553Z,10.00
2023-11-17T09:29:32.190Z,7.65
2023-11-17T09:31:59.842Z,9.77
2023-11-17T09:34:29.073Z,9.02
2023-11-17T09:36:56.799Z,8.85
2023-11-17T09:39:24.452Z,7.88
2023-11-17T09:41:53.029Z,9.32
2023-11-17T09:44:21.075Z,11.25
2023-11-17T09:46:54.731Z,7.47
2023-11-17T09:49:24.111Z,6.50
2023-11-17T09:51:53.264Z,8.15
2023-11-17T09:54:25.298Z,8.57
2023-11-17T09:56:54.645Z,4.70
2023-11-17T09:59:23.777Z,8.32
2023-11-17T10:01:52.318Z,5.57
2023-11-17T10:04:21.465Z,5.28
2023-11-17T10:06:51.961Z,5.63
2023-11-17T10:09:21.143Z,6.25
2023-11-17T10:11:49.644Z,4.25
2023-11-17T10:14:17.992Z,6.80
2023-11-17T10:16:46.172Z,6.32
2023-11-17T10:19:15.465Z,2.63
2023-11-17T10:21:48.204Z,5.85
2023-11-17T10:24:17.957Z,6.15
2023-11-17T10:26:48.675Z,3.83
2023-11-17T10:29:16.380Z,12.27
2023-11-17T10:31:48.207Z,3.65
2023-11-17T10:34:17.991Z,4.38
2023-11-17T10:36:58.763Z,4.85
2023-11-17T10:39:26.642Z,6.03
2023-11-17T10:41:55.750Z,4.05
2023-11-17T10:44:33.410Z,5.95
2023-11-17T10:47:06.096Z,3.70
2023-11-17T10:49:34.167Z,6.00
2023-11-17T10:52:01.952Z,6.43
2023-11-17T10:54:32.417Z,3.67
2023-11-17T10:57:10.240Z,4.65
2023-11-17T10:59:48.333Z,5.32
2023-11-17T11:02:21.150Z,3.83
2023-11-17T11:04:50.162Z,5.07
2023-11-17T11:07:18.016Z,3.97
2023-11-17T11:09:45.664Z,4.95
2023-11-17T11:12:15.462Z,3.92
2023-11-17T11:14:43.425Z,5.32
2023-11-17T11:17:12.635Z,2.88
2023-11-17T11:19:48.713Z,4.30
2023-11-17T11:22:27.029Z,4.43
2023-11-17T11:24:55.369Z,2.72
2023-11-17T11:27:25.372Z,4.75
2023-11-17T11:29:54.077Z,6.07
2023-11-17T11:32:22.476Z,2.67
2023-11-17T11:34:50.093Z,2.75
2023-11-17T11:37:19.069Z,4.28
2023-11-17T11:39:47.621Z,3.30
2023-11-17T11:42:15.469Z,4.55
2023-11-17T11:44:44.557Z,3.47
2023-11-17T11:47:12.249Z,3.20
2023-11-17T11:49:39.971Z,3.42
2023-11-17T11:52:12.848Z,4.38
2023-11-17T11:54:41.788Z,3.83
2023-11-17T11:57:24.828Z,4.13
2023-11-17T11:59:54.522Z,1.98
2023-11-17T12:02:22.149Z,2.05
2023-11-17T12:04:54.216Z,4.22
2023-11-17T12:07:34.333Z,3.10
2023-11-17T12:10:02.507Z,2.50
2023-11-17T12:12:30.404Z,3.70
2023-11-17T12:15:00.148Z,2.40
2023-11-17T12:17:32.758Z,2.42
2023-11-17T12:20:18.429Z,3.05
2023-11-17T12:22:57.317Z,4.28
2023-11-17T12:25:26.153Z,4.85
2023-11-17T12:27:54.540Z,5.93
2023-11-17T12:30:23.702Z,3.30
2023-11-17T12:32:53.003Z,1.20
2023-11-17T12:35:22.804Z,3.03
2023-11-17T12:37:51.471Z,2.95
2023-11-17T12:40:20.173Z,4.28
2023-11-17T12:42:48.428Z,2.35
2023-11-17T12:45:17.332Z,2.20
2023-11-17T12:47:48.798Z,2.28
2023-11-17T12:50:16.609Z,1.85
2023-11-17T12:53:07.899Z,2.28
2023-11-17T12:55:46.353Z,3.00
2023-11-17T12:58:14.112Z,2.58
2023-11-17T13:00:41.809Z,3.42
2023-11-17T13:03:10.909Z,2.33
2023-11-17T13:05:39.087Z,2.50
2023-11-17T13:08:06.723Z,3.55
2023-11-17T13:10:35.062Z,3.13
2023-11-17T13:13:07.264Z,3.25
2023-11-17T13:15:35.112Z,4.43
2023-11-17T13:18:03.858Z,2.88
2023-11-17T13:20:32.912Z,1.83
2023-11-17T13:23:00.506Z,2.20
2023-11-17T13:25:28.247Z,2.08
2023-11-17T13:27:56.628Z,2.15
2023-11-17T13:30:26.426Z,3.90
2023-11-17T13:32:57.985Z,1.48
2023-11-17T13:35:29.059Z,2.00
2023-11-17T13:38:02.101Z,2.97
2023-11-17T13:40:32.547Z,1.63
2023-11-17T13:43:00.824Z,1.63
2023-11-17T13:45:28.740Z,3.78
2023-11-17T13:48:00.228Z,1.38
2023-11-17T13:50:29.030Z,1.50
2023-11-17T13:52:56.836Z,1.60
2023-11-17T13:55:26.253Z,2.47
2023-11-17T13:57:55.663Z,3.85
2023-11-17T14:00:25.307Z,3.58
2023-11-17T14:02:53.090Z,2.92
2023-11-17T14:05:21.173Z,3.42
2023-11-17T14:07:49.256Z,1.90
2023-11-17T14:10:19.081Z,2.85
2023-11-17T14:12:48.387Z,5.53
2023-11-17T14:15:16.907Z,1.35
2023-11-17T14:17:44.853Z,1.42
2023-11-17T14:20:17.051Z,2.17
2023-11-17T14:22:45.075Z,1.67
2023-11-17T14:25:13.464Z,2.60
2023-11-17T14:27:41.924Z,3.78
2023-11-17T14:30:18.877Z,3.70
2023-11-17T14:32:46.618Z,2.78
2023-11-17T14:35:18.554Z,1.45
2023-11-17T14:37:46.664Z,1.50
2023-11-17T14:40:18.723Z,1.83
2023-11-17T14:42:47.122Z,6.25
2023-11-17T14:45:17.597Z,1.75
2023-11-17T14:47:49.054Z,2.13
2023-11-17T14:50:18.173Z,1.63
2023-11-17T14:52:46.020Z,1.75
2023-11-17T14:55:18.386Z,3.67
2023-11-17T14:57:47.027Z,1.90
2023-11-17T15:00:21.532Z,3.45
2023-11-17T15:02:50.252Z,2.15
2023-11-17T15:05:21.531Z,2.58
2023-11-17T15:07:49.808Z,2.08
2023-11-17T15:10:19.666Z,2.08
2023-11-17T15:12:49.789Z,1.85
2023-11-17T15:15:28.837Z,1.50
2023-11-17T15:17:57.421Z,1.50
2023-11-17T15:20:26.515Z,2.33
2023-11-17T15:22:55.860Z,2.15
2023-11-17T15:25:25.760Z,1.48
2023-11-17T15:27:54.592Z,2.35
2023-11-17T15:30:28.176Z,1.10
2023-11-17T15:32:57.015Z,1.63
2023-11-17T15:35:25.626Z,2.35
2023-11-17T15:37:53.357Z,2.58
2023-11-17T15:40:22.935Z,1.45
2023-11-17T15:42:51.253Z,2.58
2023-11-17T15:45:24.188Z,1.38
2023-11-17T15:47:53.831Z,1.20
2023-11-17T15:50:21.723Z,1.35
2023-11-17T15:52:49.462Z,1.58
2023-11-17T15:55:17.460Z,1.20
2023-11-17T15:57:45.465Z,0.85
2023-11-17T16:00:14.756Z,1.40
2023-11-17T16:02:43.731Z,0.80
2023-11-17T16:05:16.329Z,2.67
2023-11-17T16:07:44.682Z,1.58
2023-11-17T16:10:16.248Z,1.58
2023-11-17T16:12:46.087Z,2.47
2023-11-17T16:15:14.646Z,1.80
2023-11-17T16:17:42.924Z,1.95
2023-11-17T16:20:15.221Z,1.63
2023-11-17T16:22:43.866Z,2.00
2023-11-17T16:25:12.480Z,1.73
2023-11-17T16:27:40.622Z,1.58
2023-11-17T16:30:14.282Z,1.42
2023-11-17T16:32:48.163Z,1.58
2023-11-17T16:35:18.248Z,1.20
2023-11-17T16:37:48.974Z,2.80
2023-11-17T16:40:21.426Z,3.10
2023-11-17T16:42:55.977Z,3.33
2023-11-17T16:45:23.669Z,2.83
2023-11-17T16:47:53.513Z,1.40
2023-11-17T16:50:24.057Z,1.35
2023-11-17T16:52:51.859Z,1.70
2023-11-17T16:55:20.736Z,2.05
2023-11-17T16:57:49.128Z,1.52
2023-11-17T17:00:17.316Z,1.65
2023-11-17T17:02:45.839Z,2.60
2023-11-17T17:05:16.185Z,4.80
2023-11-17T17:07:46.006Z,2.33
2023-11-17T17:10:13.908Z,1.73
2023-11-17T17:12:41.550Z,1.60
2023-11-17T17:15:15.185Z,2.72
2023-11-17T17:17:47.272Z,2.22
2023-11-17T17:20:15.783Z,1.65
2023-11-17T17:22:45.294Z,1.58
2023-11-17T17:25:16.565Z,1.75
2023-11-17T17:27:46.734Z,2.95
2023-11-17T17:30:15.242Z,1.92
2023-11-17T17:32:47.309Z,2.75
2023-11-17T17:35:15.223Z,4.00
2023-11-17T17:37:44.072Z,1.45
2023-11-17T17:40:14.758Z,2.15
2023-11-17T17:42:43.100Z,2.08
2023-11-17T17:45:12.047Z,1.80
2023-11-17T17:47:39.998Z,1.20
2023-11-17T17:50:12.890Z,3.47
2023-11-17T17:52:40.841Z,1.95
2023-11-17T17:55:09.383Z,1.65
2023-11-17T17:57:39.006Z,2.13
2023-11-17T18:00:08.462Z,4.00
2023-11-17T18:02:43.150Z,2.25
2023-11-17T18:05:11.234Z,2.25
2023-11-17T18:07:38.965Z,2.55
2023-11-17T18:10:07.248Z,2.72
2023-11-17T18:12:35.544Z,2.25
2023-11-17T18:15:04.776Z,2.45
2023-11-17T18:17:32.468Z,2.47
2023-11-17T18:20:00.147Z,2.35
2023-11-17T18:22:27.792Z,2.20
2023-11-17T18:24:55.773Z,1.25
2023-11-17T18:27:23.380Z,1.67
2023-11-17T18:29:51.026Z,2.60
2023-11-17T18:32:26.180Z,2.03
2023-11-17T18:34:57.013Z,1.33
2023-11-17T18:37:24.772Z,1.60
2023-11-17T18:39:53.068Z,2.08
2023-11-17T18:42:21.890Z,1.30
2023-11-17T18:44:49.552Z,3.45
2023-11-17T18:47:17.269Z,1.48
2023-11-17T18:49:46.296Z,1.25
2023-11-17T18:52:14.049Z,1.65
2023-11-17T18:54:41.697Z,1.05
2023-11-17T18:57:10.495Z,1.92
2023-11-17T18:59:38.164Z,3.70
2023-11-17T19:02:07.672Z,2.33
2023-11-17T19:04:35.501Z,2.22
2023-11-17T19:07:07.088Z,2.08
2023-11-17T19:09:38.601Z,2.83
2023-11-17T19:12:07.265Z,1.60
2023-11-17T19:14:35.208Z,3.40
2023-11-17T19:17:03.396Z,1.67
2023-11-17T19:19:31.658Z,4.70
2023-11-17T19:21:59.889Z,2.75
2023-11-17T19:24:30.459Z,0.90
2023-11-17T19:27:07.662Z,2.17
2023-11-17T19:29:38.219Z,2.50
2023-11-17T19:32:06.236Z,0.88
2023-11-17T19:34:33.842Z,2.13
2023-11-17T19:37:01.501Z,1.20
2023-11-17T19:39:33.007Z,1.40
2023-11-17T19:42:02.318Z,1.95
2023-11-17T19:44:39.231Z,1.77
2023-11-17T19:47:15.341Z,0.90
2023-11-17T19:49:43.047Z,2.05
2023-11-17T19:52:11.390Z,1.17
2023-11-17T19:54:40.709Z,2.42
2023-11-17T19:57:08.918Z,2.75
2023-11-17T19:59:36.606Z,1.35
2023-11-17T20:02:04.542Z,1.30
2023-11-17T20:04:32.314Z,1.58
2023-11-17T20:06:59.986Z,1.40
2023-11-17T20:09:40.696Z,3.95
2023-11-17T20:12:11.288Z,1.35
2023-11-17T20:14:38.972Z,3.03
2023-11-17T20:17:06.829Z,1.40
2023-11-17T20:19:34.660Z,1.15
2023-11-17T20:22:02.628Z,1.35
2023-11-17T20:24:30.330Z,1.42
2023-11-17T20:26:58.007Z,1.42
2023-11-17T20:29:28.075Z,4.80
2023-11-17T20:31:55.868Z,2.58
2023-11-17T20:34:23.536Z,2.20
2023-11-17T20:36:52.619Z,2.45
2023-11-17T20:39:21.458Z,1.20
2023-11-17T20:41:49.336Z,2.70
2023-11-17T20:44:16.973Z,3.40
2023-11-17T20:46:46.511Z,3.13
2023-11-17T20:49:14.451Z,1.33
2023-11-17T20:51:42.093Z,3.80
2023-11-17T20:54:13.481Z,1.83
2023-11-17T20:56:42.101Z,1.67
2023-11-17T20:59:13.053Z,2.47
2023-11-17T21:01:40.966Z,1.55
2023-11-17T21:04:10.852Z,2.28
2023-11-17T21:06:40.350Z,2.05
2023-11-17T21:09:11.564Z,2.63
2023-11-17T21:11:39.476Z,1.85
2023-11-17T21:14:07.985Z,1.50
2023-11-17T21:16:35.882Z,1.52
2023-11-17T21:19:03.570Z,1.67
2023-11-17T21:21:34.202Z,2.03
2023-11-17T21:24:03.680Z,1.60
2023-11-17T21:26:32.679Z,1.52
2023-11-17T21:29:00.791Z,2.05
2023-11-17T21:31:34.524Z,2.67
2023-11-17T21:34:04.209Z,2.28
2023-11-17T21:36:33.406Z,2.15
2023-11-17T21:39:01.492Z,2.15
2023-11-17T21:41:31.024Z,1.67
2023-11-17T21:43:58.750Z,1.75
2023-11-17T21:46:28.063Z,3.88
2023-11-17T21:48:54.909Z,2.80
2023-11-17T21:51:22.595Z,2.15
2023-11-17T21:53:53.084Z,2.72
2023-11-17T21:56:23.725Z,2.47
2023-11-17T21:58:51.413Z,1.83
2023-11-17T22:01:20.322Z,4.00
2023-11-17T22:03:48.024Z,1.95
2023-11-17T22:06:15.706Z,2.53
2023-11-17T22:08:43.416Z,1.65
2023-11-17T22:11:12.418Z,1.52
2023-11-17T22:13:41.533Z,1.65
2023-11-17T22:16:09.348Z,6.78
2023-11-17T22:18:37.022Z,4.75
2023-11-17T22:21:06.093Z,3.95
2023-11-17T22:23:34.368Z,3.63
2023-11-17T22:26:02.033Z,1.38
2023-11-17T22:28:31.070Z,2.20
2023-11-17T22:30:58.768Z,1.92
2023-11-17T22:33:26.399Z,2.17
2023-11-17T22:35:54.234Z,1.85
2023-11-17T22:38:25.837Z,2.13
2023-11-17T22:40:54.375Z,1.60
2023-11-17T22:43:22.068Z,2.40
2023-11-17T22:45:51.135Z,7.30
2023-11-17T22:48:18.767Z,3.53
2023-11-17T22:50:46.345Z,2.05
2023-11-17T22:53:13.988Z,3.70
2023-11-17T22:55:41.663Z,3.00
2023-11-17T22:58:11.386Z,2.70
2023-11-17T23:00:49.104Z,2.65
2023-11-17T23:03:18.590Z,3.38
2023-11-17T23:05:46.392Z,1.42
2023-11-17T23:08:14.576Z,2.72
2023-11-17T23:10:42.800Z,1.95
2023-11-17T23:13:11.058Z,4.05
2023-11-17T23:15:38.683Z,2.03
2023-11-17T23:18:07.011Z,2.70
2023-11-17T23:20:37.396Z,5.75
2023-11-17T23:23:05.088Z,2.13
2023-11-17T23:25:37.525Z,2.85
2023-11-17T23:28:06.755Z,2.65
2023-11-17T23:30:34.422Z,3.42
2023-11-17T23:33:04.933Z,2.28
2023-11-17T23:35:32.583Z,2.97
2023-11-17T23:38:02.346Z,3.17
2023-11-17T23:40:30.136Z,3.28
2023-11-17T23:42:57.775Z,2.17
2023-11-17T23:45:25.413Z,1.75
2023-11-17T23:47:53.106Z,2.60
2023-11-17T23:50:20.820Z,3.10
2023-11-17T23:52:48.492Z,3.72
2023-11-17T23:55:17.684Z,3.22
2023-11-17T23:57:45.301Z,2.70
